createdAt,value
2019-02-05T00:00:55.842Z,18.50
2019-02-05T00:03:25.277Z,21.00
2019-02-05T00:05:54.882Z,20.10
2019-02-05T00:08:24.330Z,16.57
2019-02-05T00:10:53.825Z,16.77
2019-02-05T00:13:23.270Z,16.33
2019-02-05T00:15:52.762Z,17.33
2019-02-05T00:18:22.205Z,17.37
2019-02-05T00:20:51.666Z,15.83
2019-02-05T00:23:21.111Z,16.43
2019-02-05T00:25:50.814Z,16.97
2019-02-05T00:28:20.285Z,16.03
2019-02-05T00:30:49.709Z,15.73
2019-02-05T00:33:19.147Z,15.07
2019-02-05T00:35:48.616Z,14.47
2019-02-05T00:38:18.192Z,15.87
2019-02-05T00:40:48.083Z,15.00
2019-02-05T00:43:17.536Z,16.67
2019-02-05T00:45:46.970Z,15.13
2019-02-05T00:48:16.423Z,16.43
2019-02-05T00:50:45.855Z,16.33
2019-02-05T00:53:15.302Z,14.87
2019-02-05T00:55:46.098Z,17.10
2019-02-05T00:58:15.514Z,15.80
2019-02-05T01:00:44.950Z,15.63
2019-02-05T01:03:14.523Z,15.93
2019-02-05T01:05:43.957Z,16.57
2019-02-05T01:08:13.455Z,15.03
2019-02-05T01:10:42.886Z,16.90
2019-02-05T01:13:12.407Z,15.50
2019-02-05T01:15:41.832Z,19.13
2019-02-05T01:18:11.510Z,16.13
2019-02-05T01:20:40.948Z,15.70
2019-02-05T01:23:10.391Z,15.83
2019-02-05T01:25:40.582Z,18.13
2019-02-05T01:28:10.023Z,16.40
2019-02-05T01:30:39.450Z,17.90
2019-02-05T01:33:08.896Z,17.40
2019-02-05T01:35:38.321Z,16.00
2019-02-05T01:38:08.214Z,18.27
2019-02-05T01:40:37.667Z,17.60
2019-02-05T01:43:07.189Z,19.07
2019-02-05T01:45:36.621Z,19.10
2019-02-05T01:48:06.310Z,17.47
2019-02-05T01:50:35.737Z,19.03
2019-02-05T01:53:05.522Z,19.77
2019-02-05T01:55:34.948Z,18.07
2019-02-05T01:58:04.476Z,19.87
2019-02-05T02:00:35.672Z,21.67
2019-02-05T02:03:05.639Z,20.40
2019-02-05T02:05:35.147Z,19.90
2019-02-05T02:08:05.337Z,21.13
2019-02-05T02:10:34.752Z,20.03
2019-02-05T02:13:04.478Z,21.43
2019-02-05T02:15:33.907Z,18.07
2019-02-05T02:18:03.348Z,20.87
2019-02-05T02:20:32.781Z,18.43
2019-02-05T02:23:02.230Z,15.93
2019-02-05T02:25:31.654Z,17.10
2019-02-05T02:28:01.164Z,20.23
2019-02-05T02:30:34.699Z,20.00
2019-02-05T02:33:04.514Z,19.10
2019-02-05T02:35:34.385Z,19.33
2019-02-05T02:38:03.833Z,18.33
2019-02-05T02:40:33.263Z,19.43
2019-02-05T02:43:02.768Z,19.30
2019-02-05T02:45:32.215Z,18.20
2019-02-05T02:48:01.739Z,18.77
2019-02-05T02:50:31.554Z,19.20
2019-02-05T02:53:01.051Z,20.40
2019-02-05T02:55:30.521Z,19.20
2019-02-05T02:58:00.834Z,18.87
2019-02-05T03:00:30.292Z,20.20
2019-02-05T03:02:59.717Z,17.27
2019-02-05T03:05:29.435Z,18.27
2019-02-05T03:07:58.884Z,18.10
2019-02-05T03:10:30.907Z,19.07
2019-02-05T03:13:00.404Z,20.80
2019-02-05T03:15:29.870Z,19.57
2019-02-05T03:17:59.309Z,19.73
2019-02-05T03:20:28.744Z,18.40
2019-02-05T03:22:58.194Z,17.73
2019-02-05T03:25:27.762Z,17.20
2019-02-05T03:27:57.285Z,17.53
2019-02-05T03:30:27.227Z,17.87
2019-02-05T03:32:57.463Z,20.60
2019-02-05T03:35:26.893Z,17.13
2019-02-05T03:37:56.717Z,18.07
2019-02-05T03:40:33.765Z,19.07
2019-02-05T03:43:03.284Z,19.97
2019-02-05T03:45:34.051Z,19.83
2019-02-05T03:48:04.725Z,19.00
2019-02-05T03:50:44.385Z,21.33
2019-02-05T03:53:39.223Z,20.87
2019-02-05T03:56:19.073Z,21.97
2019-02-05T03:59:15.773Z,21.53
2019-02-05T04:02:16.410Z,23.37
2019-02-05T04:05:02.431Z,18.20
2019-02-05T04:07:59.164Z,18.83
2019-02-05T04:10:56.921Z,18.60
2019-02-05T04:14:03.952Z,17.73
2019-02-05T04:16:55.619Z,17.57
2019-02-05T04:19:32.368Z,17.33
2019-02-05T04:22:09.126Z,18.87
2019-02-05T04:24:57.759Z,17.83
2019-02-05T04:27:49.294Z,20.53
2019-02-05T04:30:26.446Z,21.47
2019-02-05T04:33:12.362Z,19.43
2019-02-05T04:36:01.120Z,20.60
2019-02-05T04:38:49.879Z,18.03
2019-02-05T04:41:52.578Z,20.63
2019-02-05T04:44:43.932Z,18.40
2019-02-05T04:47:32.458Z,19.47
2019-02-05T04:50:15.255Z,17.80
2019-02-05T04:53:10.225Z,17.63
2019-02-05T04:56:15.278Z,18.30
2019-02-05T04:59:12.900Z,19.97
2019-02-05T05:01:58.904Z,20.50
2019-02-05T05:04:52.277Z,24.33
2019-02-05T05:07:28.977Z,21.73
2019-02-05T05:09:59.265Z,21.63
2019-02-05T05:12:28.759Z,20.90
2019-02-05T05:14:58.550Z,19.80
2019-02-05T05:17:27.972Z,19.43
2019-02-05T05:19:57.488Z,19.47
2019-02-05T05:22:27.003Z,19.67
2019-02-05T05:24:56.523Z,20.40
2019-02-05T05:27:26.995Z,19.60
2019-02-05T05:29:56.741Z,19.80
2019-02-05T05:32:26.324Z,21.43
2019-02-05T05:34:55.786Z,21.07
2019-02-05T05:37:25.225Z,23.37
2019-02-05T05:39:54.702Z,21.07
2019-02-05T05:42:25.868Z,21.63
2019-02-05T05:44:55.352Z,24.07
2019-02-05T05:47:24.785Z,23.90
2019-02-05T05:49:54.314Z,24.97
2019-02-05T05:52:23.752Z,22.73
2019-02-05T05:54:53.200Z,25.60
2019-02-05T05:57:22.671Z,25.97
2019-02-05T05:59:52.105Z,23.27
2019-02-05T06:02:21.623Z,24.30
2019-02-05T06:04:51.157Z,23.20
2019-02-05T06:07:20.604Z,22.60
2019-02-05T06:09:50.133Z,23.40
2019-02-05T06:12:19.573Z,24.63
2019-02-05T06:14:49.213Z,22.30
2019-02-05T06:17:18.651Z,23.23
2019-02-05T06:19:48.099Z,23.33
2019-02-05T06:22:17.536Z,22.57
2019-02-05T06:24:47.064Z,24.33
2019-02-05T06:27:16.563Z,23.37
2019-02-05T06:29:46.285Z,24.93
2019-02-05T06:32:15.735Z,24.30
2019-02-05T06:34:46.139Z,23.00
2019-02-05T06:37:15.653Z,25.13
2019-02-05T06:39:45.108Z,25.20
2019-02-05T06:42:14.539Z,25.07
2019-02-05T06:44:43.989Z,23.50
2019-02-05T06:47:13.502Z,23.27
2019-02-05T06:49:42.955Z,22.87
2019-02-05T06:52:12.393Z,25.97
2019-02-05T06:54:41.852Z,20.83
2019-02-05T06:57:11.293Z,24.30
2019-02-05T06:59:40.745Z,21.53
2019-02-05T07:02:11.070Z,23.53
2019-02-05T07:04:40.532Z,20.90
2019-02-05T07:07:09.959Z,21.70
2019-02-05T07:09:39.441Z,19.87
2019-02-05T07:12:08.944Z,20.30
2019-02-05T07:14:38.396Z,20.97
2019-02-05T07:17:08.190Z,21.60
2019-02-05T07:19:37.638Z,20.17
2019-02-05T07:22:07.212Z,22.03
2019-02-05T07:24:36.657Z,21.43
2019-02-05T07:27:06.276Z,24.57
2019-02-05T07:29:35.725Z,22.37
2019-02-05T07:32:05.414Z,23.87
2019-02-05T07:34:34.851Z,20.33
2019-02-05T07:37:04.369Z,19.77
2019-02-05T07:39:33.810Z,18.67
2019-02-05T07:42:03.269Z,21.27
2019-02-05T07:44:32.704Z,22.57
2019-02-05T07:47:02.239Z,21.40
2019-02-05T07:49:31.676Z,20.33
2019-02-05T07:52:01.206Z,77.50
2019-02-05T07:54:30.648Z,110.80
2019-02-05T07:57:00.093Z,63.23
2019-02-05T07:59:29.523Z,46.00
2019-02-05T08:01:58.973Z,23.00
2019-02-05T08:04:28.406Z,22.20
2019-02-05T08:06:57.846Z,24.57
2019-02-05T08:09:27.328Z,22.00
2019-02-05T08:11:56.815Z,21.10
2019-02-05T08:14:26.306Z,22.60
2019-02-05T08:16:55.760Z,20.33
2019-02-05T08:19:25.190Z,23.17
2019-02-05T08:21:54.658Z,22.57
2019-02-05T08:24:24.046Z,38.87
2019-02-05T08:26:53.768Z,108.70
2019-02-05T08:29:23.252Z,28.47
2019-02-05T08:31:52.708Z,23.53
2019-02-05T08:34:22.150Z,21.97
2019-02-05T08:36:51.669Z,22.37
2019-02-05T08:39:21.104Z,26.13
2019-02-05T08:41:50.549Z,95.23
2019-02-05T08:44:19.982Z,23.70
2019-02-05T08:46:49.439Z,21.90
2019-02-05T08:49:18.914Z,21.07
2019-02-05T08:51:48.372Z,20.17
2019-02-05T08:54:17.805Z,21.20
2019-02-05T08:56:47.274Z,20.47
2019-02-05T08:59:17.094Z,22.00
2019-02-05T09:01:46.569Z,20.40
2019-02-05T09:04:16.002Z,22.00
2019-02-05T09:06:45.446Z,22.87
2019-02-05T09:09:14.943Z,20.43
2019-02-05T09:11:44.386Z,21.80
2019-02-05T09:14:13.828Z,22.43
2019-02-05T09:16:43.460Z,21.30
2019-02-05T09:19:12.873Z,23.67
2019-02-05T09:21:42.317Z,19.47
2019-02-05T09:24:11.745Z,22.87
2019-02-05T09:26:41.200Z,19.70
2019-02-05T09:29:10.626Z,22.60
2019-02-05T09:31:40.455Z,22.23
2019-02-05T09:34:09.898Z,22.93
2019-02-05T09:36:39.343Z,20.90
2019-02-05T09:39:09.119Z,21.20
2019-02-05T09:41:38.562Z,20.80
2019-02-05T09:44:08.071Z,24.13
2019-02-05T09:46:37.512Z,21.50
2019-02-05T09:49:07.217Z,25.10
2019-02-05T09:51:36.662Z,25.47
2019-02-05T09:54:06.328Z,25.40
2019-02-05T09:56:35.803Z,21.50
2019-02-05T09:59:05.298Z,31.53
2019-02-05T10:01:35.908Z,27.63
2019-02-05T10:04:05.855Z,23.00
2019-02-05T10:06:35.381Z,26.67
2019-02-05T10:09:08.091Z,23.43
2019-02-05T10:11:37.536Z,22.30
2019-02-05T10:14:07.035Z,22.63
2019-02-05T10:16:36.518Z,22.50
2019-02-05T10:19:05.946Z,24.07
2019-02-05T10:21:35.397Z,23.23
2019-02-05T10:24:05.281Z,22.30
2019-02-05T10:26:34.730Z,22.70
2019-02-05T10:29:04.249Z,21.83
2019-02-05T10:31:33.698Z,20.53
2019-02-05T10:34:03.163Z,20.53
2019-02-05T10:36:32.793Z,19.00
2019-02-05T10:39:02.237Z,19.37
2019-02-05T10:41:31.870Z,19.30
2019-02-05T10:44:01.320Z,18.20
2019-02-05T10:46:30.795Z,20.13
2019-02-05T10:49:03.179Z,21.00
2019-02-05T10:51:31.415Z,20.07
2019-02-05T10:54:00.859Z,18.33
2019-02-05T10:56:30.284Z,22.30
2019-02-05T10:58:59.737Z,18.77
2019-02-05T11:01:29.244Z,20.67
2019-02-05T11:03:58.757Z,19.97
2019-02-05T11:06:28.193Z,19.57
2019-02-05T11:08:57.836Z,18.80
2019-02-05T11:11:27.270Z,18.00
2019-02-05T11:13:56.713Z,18.77
2019-02-05T11:16:26.151Z,20.97
2019-02-05T11:18:55.618Z,18.80
2019-02-05T11:21:25.097Z,18.67
2019-02-05T11:23:54.862Z,18.00
2019-02-05T11:26:24.276Z,19.10
2019-02-05T11:28:53.742Z,19.73
2019-02-05T11:31:23.176Z,18.20
2019-02-05T11:33:52.624Z,18.07
2019-02-05T11:36:22.065Z,15.00
2019-02-05T11:38:51.518Z,15.73
2019-02-05T11:41:21.240Z,16.70
2019-02-05T11:43:50.695Z,15.07
2019-02-05T11:46:20.120Z,17.70
2019-02-05T11:48:49.565Z,18.63
2019-02-05T11:51:19.003Z,18.87
2019-02-05T11:53:48.471Z,21.23
2019-02-05T11:56:17.913Z,18.60
2019-02-05T11:58:47.361Z,17.23
2019-02-05T12:01:16.994Z,20.50
2019-02-05T12:03:46.446Z,17.27
2019-02-05T12:06:15.884Z,22.57
2019-02-05T12:08:45.339Z,26.23
2019-02-05T12:11:14.844Z,22.63
2019-02-05T12:13:44.450Z,25.03
2019-02-05T12:16:13.882Z,26.60
2019-02-05T12:18:43.443Z,26.60
2019-02-05T12:21:12.876Z,26.90
2019-02-05T12:23:42.426Z,31.10
2019-02-05T12:26:11.862Z,29.30
2019-02-05T12:28:41.318Z,28.60
2019-02-05T12:31:11.032Z,29.97
2019-02-05T12:33:40.464Z,29.30
2019-02-05T12:36:09.893Z,29.47
2019-02-05T12:38:39.340Z,31.30
2019-02-05T12:41:08.790Z,34.00
2019-02-05T12:43:38.243Z,29.67
2019-02-05T12:46:08.075Z,31.53
2019-02-05T12:48:37.527Z,43.33
2019-02-05T12:51:07.103Z,35.30
2019-02-05T12:53:36.625Z,32.20
2019-02-05T12:56:06.294Z,33.87
2019-02-05T12:58:35.775Z,32.43
2019-02-05T13:01:05.534Z,31.80
2019-02-05T13:03:34.978Z,32.27
2019-02-05T13:06:04.639Z,35.77
2019-02-05T13:08:34.084Z,34.67
2019-02-05T13:11:03.543Z,34.57
2019-02-05T13:13:33.046Z,31.33
2019-02-05T13:16:02.858Z,33.33
2019-02-05T13:18:32.319Z,32.50
2019-02-05T13:21:01.746Z,33.07
2019-02-05T13:23:31.222Z,34.47
2019-02-05T13:26:00.646Z,32.07
2019-02-05T13:28:30.224Z,35.10
2019-02-05T13:31:07.657Z,33.73
2019-02-05T13:33:31.033Z,31.37
2019-02-05T13:36:00.534Z,32.20
2019-02-05T13:38:30.029Z,35.27
2019-02-05T13:40:59.456Z,33.27
2019-02-05T13:43:28.888Z,34.47
2019-02-05T13:45:58.565Z,30.33
2019-02-05T13:48:27.995Z,33.87
2019-02-05T13:50:57.498Z,33.97
2019-02-05T13:53:26.997Z,33.73
2019-02-05T13:55:56.463Z,33.57
2019-02-05T13:58:25.927Z,36.00
2019-02-05T14:00:55.491Z,36.53
2019-02-05T14:03:24.980Z,37.03
2019-02-05T14:05:54.454Z,36.33
2019-02-05T14:08:23.906Z,39.33
2019-02-05T14:10:53.427Z,36.60
2019-02-05T14:13:22.932Z,35.73
2019-02-05T14:15:53.408Z,40.10
2019-02-05T14:18:23.277Z,40.23
2019-02-05T14:20:53.006Z,39.63
2019-02-05T14:23:22.546Z,39.30
2019-02-05T14:25:52.014Z,42.07
2019-02-05T14:28:21.460Z,39.23
2019-02-05T14:30:53.540Z,42.03
2019-02-05T14:33:23.309Z,41.77
2019-02-05T14:35:52.840Z,41.00
2019-02-05T14:38:22.270Z,44.03
2019-02-05T14:40:51.749Z,41.63
2019-02-05T14:43:21.190Z,40.97
2019-02-05T14:45:50.818Z,39.63
2019-02-05T14:48:20.274Z,39.70
2019-02-05T14:50:49.762Z,41.80
2019-02-05T14:53:19.189Z,43.30
2019-02-05T14:55:48.638Z,46.17
2019-02-05T14:58:18.607Z,41.67
2019-02-05T15:00:48.086Z,42.33
2019-02-05T15:03:17.537Z,56.93
2019-02-05T15:05:47.013Z,72.93
2019-02-05T15:08:16.433Z,47.60
2019-02-05T15:10:46.252Z,48.37
2019-02-05T15:13:16.283Z,48.37
2019-02-05T15:15:45.841Z,52.43
2019-02-05T15:18:15.509Z,55.90
2019-02-05T15:20:47.684Z,48.87
2019-02-05T15:23:17.185Z,100.23
2019-02-05T15:25:46.790Z,53.40
2019-02-05T15:28:16.299Z,46.40
2019-02-05T15:30:46.044Z,45.30
2019-02-05T15:33:36.805Z,44.70
2019-02-05T15:36:08.280Z,100.93
2019-02-05T15:38:37.702Z,58.83
2019-02-05T15:41:07.169Z,46.50
2019-02-05T15:43:37.874Z,50.50
2019-02-05T15:46:07.337Z,45.20
2019-02-05T15:48:36.769Z,97.07
2019-02-05T15:51:07.162Z,77.73
2019-02-05T15:53:36.606Z,51.37
2019-02-05T15:56:06.572Z,47.27
2019-02-05T15:58:36.019Z,46.40
2019-02-05T16:01:06.482Z,45.47
2019-02-05T16:03:35.916Z,84.47
2019-02-05T16:06:05.822Z,51.33
2019-02-05T16:08:35.255Z,49.23
2019-02-05T16:11:05.214Z,48.70
2019-02-05T16:13:34.712Z,52.03
2019-02-05T16:16:04.545Z,50.97
2019-02-05T16:18:33.989Z,51.07
2019-02-05T16:21:03.954Z,45.17
2019-02-05T16:23:33.446Z,53.10
2019-02-05T16:26:02.917Z,49.40
2019-02-05T16:28:32.356Z,52.63
2019-02-05T16:31:01.883Z,53.23
2019-02-05T16:33:31.317Z,50.40
2019-02-05T16:36:01.140Z,47.20
2019-02-05T16:38:30.568Z,53.77
2019-02-05T16:41:00.035Z,55.53
2019-02-05T16:43:29.462Z,56.10
2019-02-05T16:45:58.925Z,49.87
2019-02-05T16:48:28.442Z,51.23
2019-02-05T16:50:58.218Z,53.03
2019-02-05T16:53:27.642Z,53.10
2019-02-05T16:55:57.187Z,52.40
2019-02-05T16:58:26.626Z,54.23
2019-02-05T17:00:56.109Z,52.40
2019-02-05T17:03:25.542Z,52.53
2019-02-05T17:05:55.289Z,63.57
2019-02-05T17:08:24.862Z,53.83
2019-02-05T17:10:54.352Z,54.73
2019-02-05T17:13:23.779Z,51.50
2019-02-05T17:15:53.250Z,54.83
2019-02-05T17:18:24.014Z,54.50
2019-02-05T17:20:53.651Z,53.67
2019-02-05T17:23:23.085Z,68.60
2019-02-05T17:25:52.568Z,53.10
2019-02-05T17:28:22.006Z,51.80
2019-02-05T17:30:52.427Z,51.13
2019-02-05T17:33:22.076Z,54.00
2019-02-05T17:35:51.626Z,54.83
2019-02-05T17:38:21.053Z,51.23
2019-02-05T17:40:50.553Z,55.03
2019-02-05T17:43:19.967Z,55.60
2019-02-05T17:45:49.405Z,55.50
2019-02-05T17:48:19.017Z,54.93
2019-02-05T17:50:48.449Z,53.20
2019-02-05T17:53:18.093Z,57.53
2019-02-05T17:55:47.524Z,54.70
2019-02-05T17:58:17.035Z,55.23
2019-02-05T18:00:53.501Z,51.10
2019-02-05T18:03:23.289Z,50.03
2019-02-05T18:05:52.796Z,54.63
2019-02-05T18:08:22.263Z,50.27
2019-02-05T18:10:51.698Z,50.47
2019-02-05T18:13:21.192Z,51.43
2019-02-05T18:15:50.630Z,50.33
2019-02-05T18:18:20.296Z,51.63
2019-02-05T18:20:49.730Z,49.90
2019-02-05T18:23:19.211Z,129.50
2019-02-05T18:25:48.677Z,90.20
2019-02-05T18:28:18.159Z,65.47
2019-02-05T18:30:47.661Z,51.93
2019-02-05T18:33:17.516Z,54.80
2019-02-05T18:35:47.171Z,50.37
2019-02-05T18:38:17.727Z,47.27
2019-02-05T18:40:47.159Z,52.73
2019-02-05T18:43:16.708Z,52.93
2019-02-05T18:45:46.142Z,48.33
2019-02-05T18:48:15.616Z,48.47
2019-02-05T18:50:45.754Z,49.10
2019-02-05T18:53:15.246Z,44.87
2019-02-05T18:55:46.396Z,49.83
2019-02-05T18:58:15.912Z,50.00
2019-02-05T19:00:46.634Z,49.50
2019-02-05T19:03:16.523Z,52.57
2019-02-05T19:05:46.143Z,47.97
2019-02-05T19:08:16.563Z,48.03
2019-02-05T19:10:46.493Z,39.50
2019-02-05T19:13:15.973Z,45.97
2019-02-05T19:15:45.880Z,39.17
2019-02-05T19:18:15.370Z,44.57
2019-02-05T19:20:44.874Z,43.47
2019-02-05T19:23:14.432Z,45.63
2019-02-05T19:25:54.252Z,39.70
2019-02-05T19:28:25.743Z,40.97
2019-02-05T19:31:02.445Z,39.73
2019-02-05T19:33:32.884Z,39.87
2019-02-05T19:36:02.305Z,39.90
2019-02-05T19:38:31.860Z,37.83
2019-02-05T19:41:01.687Z,41.67
2019-02-05T19:43:31.176Z,42.07
2019-02-05T19:46:02.842Z,35.37
2019-02-05T19:48:34.125Z,42.73
2019-02-05T19:51:03.896Z,43.93
2019-02-05T19:53:33.386Z,43.90
2019-02-05T19:56:03.200Z,39.33
2019-02-05T19:58:33.126Z,39.27
2019-02-05T20:01:03.666Z,43.80
2019-02-05T20:03:38.889Z,40.13
2019-02-05T20:06:04.931Z,42.57
2019-02-05T20:08:34.468Z,38.03
2019-02-05T20:11:03.913Z,36.80
2019-02-05T20:13:40.391Z,38.60
2019-02-05T20:16:04.711Z,39.93
2019-02-05T20:18:34.380Z,41.00
2019-02-05T20:21:04.039Z,41.07
2019-02-05T20:23:33.519Z,39.80
2019-02-05T20:26:02.949Z,38.50
2019-02-05T20:28:32.429Z,37.97
2019-02-05T20:31:01.853Z,38.23
2019-02-05T20:33:31.410Z,42.73
2019-02-05T20:36:00.841Z,40.87
2019-02-05T20:38:30.343Z,39.10
2019-02-05T20:40:59.776Z,35.93
2019-02-05T20:43:29.362Z,36.90
2019-02-05T20:45:59.123Z,36.40
2019-02-05T20:48:29.729Z,40.50
2019-02-05T20:51:01.105Z,35.70
2019-02-05T20:53:30.845Z,39.60
2019-02-05T20:56:00.385Z,43.30
2019-02-05T20:58:29.973Z,37.67
2019-02-05T21:00:59.508Z,36.47
2019-02-05T21:03:29.107Z,41.67
2019-02-05T21:05:58.648Z,37.27
2019-02-05T21:08:28.181Z,35.23
2019-02-05T21:10:57.709Z,39.60
2019-02-05T21:13:27.215Z,37.27
2019-02-05T21:15:56.774Z,35.50
2019-02-05T21:18:26.434Z,41.83
2019-02-05T21:20:56.031Z,41.20
2019-02-05T21:23:25.636Z,46.73
2019-02-05T21:25:55.218Z,37.70
2019-02-05T21:28:24.719Z,43.70
2019-02-05T21:30:54.373Z,40.20
2019-02-05T21:33:24.129Z,42.33
2019-02-05T21:35:53.603Z,42.00
2019-02-05T21:38:23.048Z,36.97
2019-02-05T21:40:52.648Z,43.47
2019-02-05T21:43:22.101Z,40.40
2019-02-05T21:45:51.592Z,41.53
2019-02-05T21:48:21.472Z,39.00
2019-02-05T21:50:50.942Z,41.23
2019-02-05T21:53:20.393Z,41.00
2019-02-05T21:55:49.853Z,41.07
2019-02-05T21:58:19.307Z,39.83
2019-02-05T22:00:48.794Z,41.70
2019-02-05T22:03:18.235Z,43.10
2019-02-05T22:05:47.983Z,44.30
2019-02-05T22:08:17.631Z,42.03
2019-02-05T22:10:47.195Z,43.73
2019-02-05T22:13:16.724Z,41.27
2019-02-05T22:15:46.407Z,41.10
2019-02-05T22:18:15.954Z,44.00
2019-02-05T22:20:45.503Z,41.67
2019-02-05T22:23:15.435Z,45.80
2019-02-05T22:25:44.972Z,41.17
2019-02-05T22:28:14.461Z,48.47
2019-02-05T22:30:43.976Z,42.47
2019-02-05T22:33:13.488Z,44.47
2019-02-05T22:35:43.098Z,51.23
2019-02-05T22:38:12.656Z,46.17
2019-02-05T22:40:42.199Z,51.30
2019-02-05T22:43:11.954Z,47.93
2019-02-05T22:45:41.547Z,47.47
2019-02-05T22:48:11.111Z,53.27
2019-02-05T22:50:40.634Z,46.47
2019-02-05T22:53:12.049Z,46.77
2019-02-05T22:55:41.629Z,42.53
2019-02-05T22:58:11.357Z,42.07
2019-02-05T23:00:53.262Z,40.97
2019-02-05T23:03:27.468Z,37.30
2019-02-05T23:06:34.980Z,41.50
2019-02-05T23:09:17.891Z,51.80
2019-02-05T23:11:54.922Z,37.77
2019-02-05T23:14:24.440Z,40.20
2019-02-05T23:16:53.995Z,43.63
2019-02-05T23:19:23.802Z,49.90
2019-02-05T23:21:53.783Z,35.60
2019-02-05T23:24:23.267Z,64.53
2019-02-05T23:26:52.969Z,31.47
2019-02-05T23:29:22.592Z,43.60
2019-02-05T23:31:52.147Z,37.57
2019-02-05T23:34:21.927Z,34.33
2019-02-05T23:36:51.656Z,68.93
2019-02-05T23:39:21.228Z,35.97
2019-02-05T23:41:50.845Z,34.23
2019-02-05T23:44:20.376Z,38.47
2019-02-05T23:46:50.255Z,37.50
2019-02-05T23:49:19.869Z,38.20
2019-02-05T23:51:49.388Z,46.87
2019-02-05T23:54:18.880Z,38.67
2019-02-05T23:56:48.427Z,44.60
2019-02-05T23:59:17.914Z,38.57
